LVBQT SABE-SAZM
Flight info
| Callsign | LVBQT |
|---|---|
| Flight time | 0h 44m |
| Altitude | 41000 |
| Route | PTA8 GBE UW29 VOTRA VOTRA1U |
| Aircraft | LJ35/M-SGHRWXY/SB1 |
Departure
| Time | 2026-04-26 23:30 |
|---|---|
| Airport | Aeroparque Jorge Newbery (SABE) |
Arrival
| Time | 2026-04-27 00:15 |
|---|---|
| Airport | Ástor Piazzola International Airport (SAZM) |
| Time | Latitude | Longitude | Altitude | Speed | Heading |
|---|---|---|---|---|---|
| 2026-04-26 23:18 | -34.56219 | -58.41364 | 21 ft | 0 kts | 214° |
| 2026-04-26 23:21 | -34.56222 | -58.41367 | 21 ft | 1 kts | 213° |
| 2026-04-26 23:22 | -34.56263 | -58.41347 | 21 ft | 15 kts | 136° |
| 2026-04-26 23:22 | -34.56359 | -58.41182 | 22 ft | 31 kts | 122° |
| 2026-04-26 23:22 | -34.56481 | -58.40961 | 21 ft | 19 kts | 121° |
| 2026-04-26 23:22 | -34.56514 | -58.40861 | 21 ft | 9 kts | 66° |
| 2026-04-26 23:23 | -34.56502 | -58.40832 | 22 ft | 0 kts | 65° |
| 2026-04-26 23:29 | -34.56487 | -58.40791 | 22 ft | 13 kts | 64° |
| 2026-04-26 23:29 | -34.56441 | -58.40692 | 19 ft | 9 kts | 28° |
| 2026-04-26 23:29 | -34.56409 | -58.40700 | 19 ft | 0 kts | 298° |
| 2026-04-26 23:30 | -34.56336 | -58.40842 | 21 ft | 68 kts | 304° |
| 2026-04-26 23:30 | -34.55813 | -58.41772 | 94 ft | 189 kts | 303° |
| 2026-04-26 23:30 | -34.54958 | -58.43240 | 1039 ft | 231 kts | 301° |
| 2026-04-26 23:31 | -34.53936 | -58.44703 | 3142 ft | 234 kts | 313° |
| 2026-04-26 23:31 | -34.52362 | -58.45531 | 4907 ft | 276 kts | 337° |
| 2026-04-26 23:31 | -34.50218 | -58.45678 | 5024 ft | 323 kts | 7° |
| 2026-04-26 23:31 | -34.48271 | -58.44582 | 5188 ft | 302 kts | 31° |
| 2026-04-26 23:32 | -34.46306 | -58.43712 | 4242 ft | 312 kts | 18° |
| 2026-04-26 23:32 | -34.44658 | -58.42054 | 4912 ft | 322 kts | 63° |
| 2026-04-26 23:32 | -34.44457 | -58.39481 | 6394 ft | 315 kts | 104° |
| 2026-04-26 23:32 | -34.45037 | -58.36996 | 7654 ft | 321 kts | 119° |
| 2026-04-26 23:33 | -34.45977 | -58.34518 | 9126 ft | 328 kts | 120° |
| 2026-04-26 23:33 | -34.46908 | -58.31967 | 10577 ft | 334 kts | 118° |
| 2026-04-26 23:33 | -34.48050 | -58.29544 | 11950 ft | 329 kts | 133° |
| 2026-04-26 23:33 | -34.49681 | -58.27667 | 13387 ft | 320 kts | 150° |
| 2026-04-26 23:34 | -34.51636 | -58.26504 | 14731 ft | 308 kts | 169° |
| 2026-04-26 23:34 | -34.53672 | -58.26146 | 16063 ft | 291 kts | 189° |
| 2026-04-26 23:34 | -34.55605 | -58.26389 | 17483 ft | 279 kts | 199° |
| 2026-04-26 23:34 | -34.57490 | -58.26763 | 18897 ft | 270 kts | 201° |
| 2026-04-26 23:35 | -34.59308 | -58.27098 | 20231 ft | 262 kts | 202° |
| 2026-04-26 23:35 | -34.61088 | -58.27356 | 21640 ft | 253 kts | 202° |
| 2026-04-26 23:35 | -34.62771 | -58.27606 | 23105 ft | 235 kts | 207° |
| 2026-04-26 23:35 | -34.64114 | -58.27835 | 24193 ft | 221 kts | 205° |
| 2026-04-26 23:36 | -34.65211 | -58.28019 | 24996 ft | 218 kts | 205° |
| 2026-04-26 23:36 | -34.66696 | -58.28203 | 25987 ft | 209 kts | 207° |
| 2026-04-26 23:36 | -34.68137 | -58.28404 | 26778 ft | 212 kts | 208° |
| 2026-04-26 23:36 | -34.69503 | -58.28675 | 27266 ft | 228 kts | 211° |
| 2026-04-26 23:37 | -34.70752 | -58.28992 | 27728 ft | 240 kts | 211° |
| 2026-04-26 23:37 | -34.72423 | -58.29403 | 28588 ft | 251 kts | 208° |
| 2026-04-26 23:37 | -34.74254 | -58.29647 | 29237 ft | 277 kts | 200° |
| 2026-04-26 23:37 | -34.76123 | -58.29741 | 30537 ft | 256 kts | 203° |
| 2026-04-26 23:38 | -34.77781 | -58.29947 | 31964 ft | 222 kts | 203° |
| 2026-04-26 23:38 | -34.79315 | -58.30193 | 32714 ft | 226 kts | 208° |
| 2026-04-26 23:38 | -34.80850 | -58.30455 | 33499 ft | 220 kts | 209° |
| 2026-04-26 23:38 | -34.82400 | -58.30772 | 33815 ft | 236 kts | 208° |
| 2026-04-26 23:39 | -34.83991 | -58.31046 | 34578 ft | 230 kts | 207° |
| 2026-04-26 23:39 | -34.85634 | -58.31313 | 34923 ft | 240 kts | 206° |
| 2026-04-26 23:39 | -34.87258 | -58.31613 | 35523 ft | 237 kts | 208° |
| 2026-04-26 23:39 | -34.88941 | -58.31996 | 35646 ft | 254 kts | 208° |
| 2026-04-26 23:40 | -34.90700 | -58.32415 | 36079 ft | 261 kts | 207° |
| 2026-04-26 23:40 | -34.92498 | -58.32793 | 36626 ft | 264 kts | 206° |
| 2026-04-26 23:40 | -34.94368 | -58.33103 | 36956 ft | 277 kts | 203° |
| 2026-04-26 23:40 | -34.96339 | -58.33394 | 36985 ft | 299 kts | 201° |
| 2026-04-26 23:41 | -34.98469 | -58.33674 | 37067 ft | 318 kts | 200° |
| 2026-04-26 23:41 | -35.00714 | -58.33927 | 37238 ft | 332 kts | 184° |
| 2026-04-26 23:41 | -35.03091 | -58.34020 | 37144 ft | 347 kts | 196° |
| 2026-04-26 23:41 | -35.05530 | -58.34406 | 37163 ft | 361 kts | 198° |
| 2026-04-26 23:42 | -35.08050 | -58.34915 | 37183 ft | 373 kts | 200° |
| 2026-04-26 23:42 | -35.13405 | -58.35933 | 37190 ft | 406 kts | 195° |
| 2026-04-26 23:42 | -35.16201 | -58.36338 | 37177 ft | 417 kts | 196° |
| 2026-04-26 23:43 | -35.22067 | -58.37211 | 37101 ft | 434 kts | 192° |
| 2026-04-26 23:43 | -35.28072 | -58.37903 | 37152 ft | 432 kts | 198° |
| 2026-04-26 23:44 | -35.33987 | -58.39274 | 37161 ft | 433 kts | 198° |
| 2026-04-26 23:44 | -35.39962 | -58.40224 | 37162 ft | 430 kts | 196° |
| 2026-04-26 23:45 | -35.44835 | -58.41102 | 37158 ft | 423 kts | 198° |
| 2026-04-26 23:45 | -35.51756 | -58.41579 | 37159 ft | 441 kts | 182° |
| 2026-04-26 23:46 | -35.57849 | -58.40115 | 37146 ft | 457 kts | 176° |
| 2026-04-26 23:46 | -35.64070 | -58.38532 | 37143 ft | 456 kts | 179° |
| 2026-04-26 23:47 | -35.70314 | -58.37048 | 37135 ft | 458 kts | 178° |
| 2026-04-26 23:47 | -35.76552 | -58.35473 | 37127 ft | 457 kts | 178° |
| 2026-04-26 23:48 | -35.82794 | -58.33959 | 37125 ft | 457 kts | 178° |
| 2026-04-26 23:48 | -35.89035 | -58.32404 | 37122 ft | 457 kts | 178° |
| 2026-04-26 23:49 | -35.95273 | -58.30873 | 37116 ft | 457 kts | 178° |
| 2026-04-26 23:49 | -36.00459 | -58.29580 | 37107 ft | 458 kts | 178° |
| 2026-04-26 23:50 | -36.07756 | -58.27775 | 37099 ft | 457 kts | 178° |
| 2026-04-26 23:50 | -36.12939 | -58.26483 | 37099 ft | 457 kts | 178° |
| 2026-04-26 23:51 | -36.19183 | -58.24929 | 37090 ft | 457 kts | 178° |
| 2026-04-26 23:51 | -36.25427 | -58.23373 | 37087 ft | 457 kts | 178° |
| 2026-04-26 23:52 | -36.31669 | -58.21813 | 37081 ft | 457 kts | 177° |
| 2026-04-26 23:52 | -36.37911 | -58.20251 | 37076 ft | 458 kts | 177° |
| 2026-04-26 23:53 | -36.44154 | -58.18686 | 37070 ft | 458 kts | 177° |
| 2026-04-26 23:53 | -36.50308 | -58.17141 | 37061 ft | 458 kts | 177° |
| 2026-04-26 23:54 | -36.56553 | -58.15571 | 37056 ft | 458 kts | 177° |
| 2026-04-26 23:54 | -36.62806 | -58.13996 | 37043 ft | 458 kts | 177° |
| 2026-04-26 23:55 | -36.69038 | -58.12421 | 37042 ft | 447 kts | 177° |
| 2026-04-26 23:55 | -36.71969 | -58.11658 | 37035 ft | 414 kts | 177° |
| 2026-04-26 23:55 | -36.74687 | -58.10963 | 37013 ft | 384 kts | 178° |
| 2026-04-26 23:56 | -36.77218 | -58.10321 | 36976 ft | 359 kts | 179° |
| 2026-04-26 23:56 | -36.79557 | -58.09707 | 36852 ft | 337 kts | 179° |
| 2026-04-26 23:56 | -36.81805 | -58.09160 | 36655 ft | 324 kts | 180° |
| 2026-04-26 23:56 | -36.83994 | -58.08650 | 36408 ft | 317 kts | 180° |
| 2026-04-26 23:57 | -36.86138 | -58.08103 | 36188 ft | 311 kts | 179° |
| 2026-04-26 23:57 | -36.88233 | -58.07549 | 35968 ft | 305 kts | 179° |
| 2026-04-26 23:57 | -36.90289 | -58.07023 | 35750 ft | 298 kts | 180° |
| 2026-04-26 23:57 | -36.92332 | -58.06512 | 35538 ft | 293 kts | 180° |
| 2026-04-26 23:58 | -36.94287 | -58.06019 | 35327 ft | 288 kts | 180° |
| 2026-04-26 23:58 | -36.96232 | -58.05523 | 35124 ft | 283 kts | 180° |
| 2026-04-26 23:58 | -36.98150 | -58.05034 | 34921 ft | 279 kts | 180° |
| 2026-04-26 23:58 | -37.00035 | -58.04555 | 34723 ft | 275 kts | 180° |
| 2026-04-26 23:59 | -37.01896 | -58.04082 | 34527 ft | 271 kts | 181° |
| 2026-04-26 23:59 | -37.03731 | -58.03614 | 34334 ft | 267 kts | 181° |
| 2026-04-26 23:59 | -37.05542 | -58.03153 | 34137 ft | 264 kts | 181° |
| 2026-04-26 23:59 | -37.07330 | -58.02663 | 33945 ft | 266 kts | 175° |
| 2026-04-27 00:00 | -37.09073 | -58.01804 | 33761 ft | 271 kts | 168° |
| 2026-04-27 00:00 | -37.10776 | -58.00802 | 33545 ft | 269 kts | 168° |
| 2026-04-27 00:00 | -37.12434 | -57.99685 | 33327 ft | 276 kts | 156° |
| 2026-04-27 00:00 | -37.13963 | -57.98199 | 33014 ft | 280 kts | 163° |
| 2026-04-27 00:01 | -37.15620 | -57.96721 | 31804 ft | 305 kts | 164° |
| 2026-04-27 00:01 | -37.17468 | -57.95342 | 30918 ft | 312 kts | 166° |
| 2026-04-27 00:01 | -37.19353 | -57.93956 | 30292 ft | 318 kts | 158° |
| 2026-04-27 00:01 | -37.21144 | -57.92375 | 29937 ft | 313 kts | 158° |
| 2026-04-27 00:02 | -37.22960 | -57.90793 | 28871 ft | 322 kts | 158° |
| 2026-04-27 00:02 | -37.24848 | -57.89272 | 28066 ft | 320 kts | 158° |
| 2026-04-27 00:02 | -37.26768 | -57.87852 | 27185 ft | 320 kts | 161° |
| 2026-04-27 00:02 | -37.28693 | -57.86558 | 26750 ft | 306 kts | 162° |
| 2026-04-27 00:03 | -37.30550 | -57.85368 | 26316 ft | 296 kts | 163° |
| 2026-04-27 00:03 | -37.32378 | -57.84249 | 25841 ft | 287 kts | 164° |
| 2026-04-27 00:03 | -37.34212 | -57.83230 | 25003 ft | 292 kts | 165° |
| 2026-04-27 00:03 | -37.36072 | -57.82184 | 24261 ft | 294 kts | 163° |
| 2026-04-27 00:04 | -37.37946 | -57.81148 | 23499 ft | 294 kts | 163° |
| 2026-04-27 00:04 | -37.39854 | -57.80203 | 22643 ft | 295 kts | 164° |
| 2026-04-27 00:04 | -37.41736 | -57.79230 | 22041 ft | 287 kts | 163° |
| 2026-04-27 00:04 | -37.43551 | -57.78274 | 21427 ft | 280 kts | 164° |
| 2026-04-27 00:05 | -37.45330 | -57.77381 | 20899 ft | 272 kts | 165° |
| 2026-04-27 00:05 | -37.47081 | -57.76478 | 20232 ft | 270 kts | 164° |
| 2026-04-27 00:05 | -37.48825 | -57.75590 | 19550 ft | 270 kts | 164° |
| 2026-04-27 00:05 | -37.50549 | -57.74701 | 18926 ft | 267 kts | 163° |
| 2026-04-27 00:06 | -37.52254 | -57.73802 | 18419 ft | 261 kts | 163° |
| 2026-04-27 00:06 | -37.53886 | -57.72950 | 18044 ft | 251 kts | 163° |
| 2026-04-27 00:06 | -37.54865 | -57.72433 | 17638 ft | 250 kts | 166° |
| 2026-04-27 00:06 | -37.56479 | -57.71645 | 17042 ft | 246 kts | 168° |
| 2026-04-27 00:07 | -37.58185 | -57.70896 | 16412 ft | 293 kts | 168° |
| 2026-04-27 00:07 | -37.60341 | -57.70033 | 16194 ft | 360 kts | 168° |
| 2026-04-27 00:07 | -37.62900 | -57.69037 | 15904 ft | 413 kts | 167° |
| 2026-04-27 00:07 | -37.65836 | -57.67899 | 14600 ft | 467 kts | 167° |
| 2026-04-27 00:08 | -37.69018 | -57.66689 | 13153 ft | 480 kts | 168° |
| 2026-04-27 00:08 | -37.72199 | -57.65309 | 11207 ft | 483 kts | 164° |
| 2026-04-27 00:08 | -37.75344 | -57.63765 | 8383 ft | 481 kts | 162° |
| 2026-04-27 00:08 | -37.78213 | -57.62258 | 6672 ft | 411 kts | 163° |
| 2026-04-27 00:09 | -37.80710 | -57.60958 | 4671 ft | 370 kts | 165° |
| 2026-04-27 00:09 | -37.83018 | -57.59775 | 3265 ft | 339 kts | 166° |
| 2026-04-27 00:09 | -37.84884 | -57.58385 | 3338 ft | 295 kts | 144° |
| 2026-04-27 00:09 | -37.86024 | -57.56430 | 2897 ft | 270 kts | 135° |
| 2026-04-27 00:10 | -37.87004 | -57.54554 | 2392 ft | 244 kts | 133° |
| 2026-04-27 00:10 | -37.87885 | -57.52800 | 1803 ft | 232 kts | 131° |
| 2026-04-27 00:10 | -37.88714 | -57.51137 | 1604 ft | 209 kts | 132° |
| 2026-04-27 00:10 | -37.89458 | -57.49676 | 1707 ft | 196 kts | 134° |
| 2026-04-27 00:11 | -37.90313 | -57.48334 | 1718 ft | 187 kts | 154° |
| 2026-04-27 00:11 | -37.91324 | -57.47583 | 1722 ft | 169 kts | 165° |
| 2026-04-27 00:11 | -37.92475 | -57.47026 | 1656 ft | 176 kts | 180° |
| 2026-04-27 00:11 | -37.93571 | -57.47128 | 1978 ft | 134 kts | 201° |
| 2026-04-27 00:12 | -37.94474 | -57.47367 | 2083 ft | 130 kts | 204° |
| 2026-04-27 00:12 | -37.95293 | -57.47732 | 2200 ft | 123 kts | 214° |
| 2026-04-27 00:12 | -37.96000 | -57.48359 | 2291 ft | 127 kts | 231° |
| 2026-04-27 00:12 | -37.96235 | -57.49437 | 2209 ft | 150 kts | 276° |
| 2026-04-27 00:13 | -37.95709 | -57.50701 | 1939 ft | 155 kts | 266° |
| 2026-04-27 00:13 | -37.95558 | -57.52016 | 1627 ft | 144 kts | 269° |
| 2026-04-27 00:13 | -37.95383 | -57.52975 | 1273 ft | 119 kts | 280° |
| 2026-04-27 00:13 | -37.95049 | -57.53929 | 721 ft | 119 kts | 287° |
| 2026-04-27 00:14 | -37.94652 | -57.54888 | 419 ft | 133 kts | 299° |
| 2026-04-27 00:14 | -37.94167 | -57.55851 | 152 ft | 135 kts | 300° |
| 2026-04-27 00:14 | -37.93692 | -57.56768 | 55 ft | 109 kts | 295° |
| 2026-04-27 00:14 | -37.93344 | -57.57445 | 38 ft | 76 kts | 297° |
| 2026-04-27 00:15 | -37.93180 | -57.57817 | 39 ft | 24 kts | 301° |
| 2026-04-27 00:15 | -37.93123 | -57.57936 | 40 ft | 0 kts | 297° |
| 2026-04-27 00:15 | -37.93127 | -57.57953 | 40 ft | 7 kts | 216° |
| 2026-04-27 00:15 | -37.93226 | -57.58034 | 42 ft | 23 kts | 207° |
| 2026-04-27 00:16 | -37.93364 | -57.58031 | 42 ft | 24 kts | 194° |
| 2026-04-27 00:16 | -37.93407 | -57.58083 | 42 ft | 8 kts | 349° |
| 2026-04-27 00:16 | -37.93378 | -57.58086 | 42 ft | 0 kts | 358° |